Time;durP1;ratioP1;P1;durP2;ratioP2;P2;SDS_P1;SDS_P2;PMS_P1;PMS_P2;Temp;Humidity;BMP_temperature;BMP_pressure;BME280_temperature;BME280_humidity;BME280_pressure;Samples;Min_cycle;Max_cycle;Signal;HPM_P1;HPM_P2
2023/05/06 00:00:20;;;;;;;2.90;2.60;;;;;;;16.53;87.61;95667.63;4981642;28;20261;-88
2023/05/06 00:02:52;;;;;;;3.58;2.60;;;;;;;16.63;86.74;95669.78;4984232;28;20278;-87
2023/05/06 00:05:24;;;;;;;3.70;2.70;;;;;;;16.62;87.59;95670.75;4978480;28;20228;-87
2023/05/06 00:08:00;;;;;;;2.78;2.58;;;;;;;16.56;88.48;95667.19;4977882;28;20273;-87
2023/05/06 00:10:42;;;;;;;5.25;2.80;;;;;;;16.59;87.49;95668.56;4976639;28;20721;-88
2023/05/06 00:13:22;;;;;;;3.70;2.95;;;;;;;16.53;87.77;95670.22;4977695;28;20228;-87
2023/05/06 00:16:07;;;;;;;2.90;2.63;;;;;;;16.53;89.30;95659.03;4976675;28;20219;-88
2023/05/06 00:18:37;;;;;;;3.45;2.70;;;;;;;16.62;87.35;95657.75;4977108;28;20216;-87
2023/05/06 00:21:08;;;;;;;2.83;2.63;;;;;;;16.64;86.95;95653.16;4977532;28;20220;-88
2023/05/06 00:23:45;;;;;;;3.92;2.40;;;;;;;16.68;86.94;95654.34;4978875;28;20212;-87
2023/05/06 00:26:40;;;;;;;3.40;2.50;;;;;;;16.67;87.22;95649.34;4978113;28;20858;-87
2023/05/06 00:29:20;;;;;;;3.42;2.35;;;;;;;16.65;87.02;95651.38;4971303;28;20224;-87
2023/05/06 00:32:02;;;;;;;2.60;2.40;;;;;;;16.61;86.58;95647.56;4978248;28;20266;-87
2023/05/06 00:34:37;;;;;;;3.00;2.75;;;;;;;16.65;85.96;95648.78;4970632;28;20197;-87
2023/05/06 00:37:21;;;;;;;3.83;2.60;;;;;;;16.59;86.87;95645.19;4976916;28;20748;-87
2023/05/06 00:40:11;;;;;;;2.60;2.40;;;;;;;16.57;86.86;95645.38;4976359;28;20477;-88
2023/05/06 00:42:39;;;;;;;4.05;2.67;;;;;;;16.61;85.97;95650.16;4960407;28;20693;-87
2023/05/06 00:45:27;;;;;;;3.97;2.70;;;;;;;16.58;85.61;95641.78;4977284;28;20453;-89
2023/05/06 00:48:17;;;;;;;;;;;;;;;;;;;;;
2023/05/06 00:50:48;;;;;;;4.00;2.80;;;;;;;16.45;86.30;95647.09;4957320;29;20232;-87
2023/05/06 00:53:15;;;;;;;2.70;2.50;;;;;;;16.42;86.63;95642.31;4963618;28;20200;-87
2023/05/06 00:55:56;;;;;;;3.17;2.60;;;;;;;16.46;86.50;95640.09;4975557;28;20291;-88
2023/05/06 00:58:26;;;;;;;2.90;2.60;;;;;;;16.37;87.22;95639.53;4975873;28;20207;-87
2023/05/06 01:04:00;;;;;;;3.65;2.90;;;;;;;16.31;87.21;95634.41;4962412;28;20208;-87
2023/05/06 01:10:18;;;;;;;;;;;;;;;;;;;;;
2023/05/06 01:13:13;;;;;;;2.90;2.60;;;;;;;16.26;87.39;95635.03;4975451;28;20215;-87
2023/05/06 01:15:56;;;;;;;4.35;2.90;;;;;;;16.21;87.40;95634.84;4975163;28;20237;-87
2023/05/06 01:18:35;;;;;;;3.30;2.90;;;;;;;16.20;86.57;95635.84;4975260;28;20315;-87
2023/05/06 01:21:24;;;;;;;3.25;3.00;;;;;;;16.08;87.69;95627.94;4948758;28;20271;-87
2023/05/06 01:24:16;;;;;;;3.28;3.00;;;;;;;16.06;87.48;95632.56;4974653;28;20204;-87
2023/05/06 01:27:04;;;;;;;3.80;2.80;;;;;;;16.00;87.70;95635.19;4974585;28;20243;-87
2023/05/06 01:32:54;;;;;;;3.50;2.90;;;;;;;15.99;88.02;95624.00;4968562;28;20254;-87
2023/05/06 01:35:51;;;;;;;3.28;2.80;;;;;;;15.97;88.10;95636.38;4975299;28;20200;-87
2023/05/06 01:38:40;;;;;;;3.80;3.00;;;;;;;15.93;88.70;95642.22;4974527;28;20356;-87
2023/05/06 01:41:25;;;;;;;;;;;;;;;;;;;;;
2023/05/06 01:43:59;;;;;;;3.63;2.90;;;;;;;15.96;88.19;95629.63;4974767;28;20563;-87
2023/05/06 01:46:43;;;;;;;3.75;2.90;;;;;;;15.87;88.48;95634.25;4975016;28;20263;-88
2023/05/06 01:49:19;;;;;;;4.65;3.13;;;;;;;15.92;87.90;95625.06;4974219;28;20278;-87
2023/05/06 01:51:54;;;;;;;3.42;2.95;;;;;;;15.88;87.63;95635.06;4973781;28;20283;-87
2023/05/06 01:54:29;;;;;;;3.65;3.15;;;;;;;15.94;87.49;95634.25;4973990;28;20207;-87
2023/05/06 01:57:15;;;;;;;2.75;2.55;;;;;;;15.92;88.66;95636.25;4974369;28;20666;-88
2023/05/06 01:59:52;;;;;;;3.28;2.97;;;;;;;15.91;88.25;95639.84;4973844;28;20218;-87
2023/05/06 02:02:24;;;;;;;2.92;2.60;;;;;;;15.93;88.07;95645.63;4991753;28;20293;-87
2023/05/06 02:04:55;;;;;;;3.42;2.60;;;;;;;15.98;88.38;95634.59;4993435;28;20257;-87
2023/05/06 02:07:33;;;;;;;3.30;3.00;;;;;;;15.97;88.73;95636.38;4977662;28;20275;-87
2023/05/06 02:10:20;;;;;;;3.22;2.92;;;;;;;16.04;87.43;95639.75;4966430;28;20223;-87
2023/05/06 02:12:58;;;;;;;3.20;2.72;;;;;;;16.08;87.17;95637.53;4972010;28;20232;-87
2023/05/06 02:15:27;;;;;;;2.70;2.50;;;;;;;16.11;86.66;95627.53;4973838;28;20215;-87
2023/05/06 02:18:06;;;;;;;4.03;2.88;;;;;;;16.04;86.88;95641.56;4973712;28;20215;-87
2023/05/06 02:20:42;;;;;;;2.70;2.50;;;;;;;16.04;85.93;95634.56;4973814;28;20199;-87
2023/05/06 02:23:14;;;;;;;3.00;2.67;;;;;;;15.98;86.95;95645.78;4974358;28;20323;-87
2023/05/06 02:25:42;;;;;;;2.75;2.55;;;;;;;16.00;86.46;95640.38;4973841;28;20208;-87
2023/05/06 02:28:24;;;;;;;3.90;2.80;;;;;;;16.00;86.36;95643.78;4965742;28;20220;-87
2023/05/06 02:31:01;;;;;;;3.00;2.70;;;;;;;16.02;85.97;95641.75;4973430;28;20253;-87
2023/05/06 02:33:52;;;;;;;4.03;2.85;;;;;;;16.02;86.19;95643.56;4974180;28;20199;-87
2023/05/06 02:36:29;;;;;;;2.88;2.58;;;;;;;16.00;86.40;95648.16;4974089;28;20228;-88
2023/05/06 02:39:03;;;;;;;2.83;2.58;;;;;;;16.02;85.47;95644.38;4973234;28;20259;-87
2023/05/06 02:41:37;;;;;;;3.25;2.67;;;;;;;16.05;85.47;95637.97;4944743;28;20196;-87
2023/05/06 02:44:20;;;;;;;2.67;2.47;;;;;;;16.08;84.99;95640.16;4954114;29;20209;-87
2023/05/06 02:47:09;;;;;;;3.45;3.00;;;;;;;16.08;84.54;95637.53;4969801;28;20224;-87
2023/05/06 02:49:42;;;;;;;2.75;2.55;;;;;;;16.08;84.07;95622.75;4973329;28;20223;-87
2023/05/06 02:52:15;;;;;;;5.00;2.65;;;;;;;16.07;84.18;95625.56;4973599;28;20204;-87
2023/05/06 02:54:55;;;;;;;3.45;2.40;;;;;;;16.05;84.41;95628.38;4971765;28;20856;-87
2023/05/06 02:57:25;;;;;;;3.38;2.50;;;;;;;16.08;84.07;95619.38;4973412;28;20307;-87
2023/05/06 03:00:06;;;;;;;2.75;2.55;;;;;;;16.10;83.80;95622.56;4975266;28;20204;-87
2023/05/06 03:02:35;;;;;;;2.67;2.25;;;;;;;16.08;83.99;95624.56;4981917;28;20227;-87
2023/05/06 03:05:13;;;;;;;2.70;2.50;;;;;;;15.99;84.55;95624.00;4973782;28;20212;-87
2023/05/06 03:07:57;;;;;;;2.78;2.58;;;;;;;16.02;84.10;95615.78;4973725;28;20227;-88
2023/05/06 03:10:26;;;;;;;2.90;2.70;;;;;;;16.04;84.13;95615.59;4972534;28;20228;-87
2023/05/06 03:12:55;;;;;;;2.72;2.53;;;;;;;16.05;84.56;95622.38;4973121;28;20613;-88
2023/05/06 03:15:27;;;;;;;3.63;2.80;;;;;;;16.03;84.62;95614.78;4972419;28;20259;-86
2023/05/06 03:18:07;;;;;;;4.22;2.70;;;;;;;16.04;83.95;95616.38;4972383;28;20232;-87
2023/05/06 03:23:26;;;;;;;2.63;2.42;;;;;;;15.97;84.59;95615.63;4959281;28;20219;-87
2023/05/06 03:25:55;;;;;;;3.00;2.70;;;;;;;16.00;84.23;95612.59;4972792;28;20815;-87
2023/05/06 03:28:27;;;;;;;3.35;2.95;;;;;;;16.01;84.05;95611.59;4972930;28;20207;-89
2023/05/06 03:31:11;;;;;;;3.08;2.72;;;;;;;15.98;84.03;95617.22;4972463;28;20279;-87
2023/05/06 03:33:39;;;;;;;3.20;2.55;;;;;;;15.98;84.23;95617.22;4973968;28;20579;-87
2023/05/06 03:36:14;;;;;;;3.10;2.75;;;;;;;15.97;84.38;95617.44;4982894;28;20250;-87
2023/05/06 03:38:48;;;;;;;3.60;2.63;;;;;;;15.99;84.48;95615.41;4976524;28;20196;-87
2023/05/06 03:41:17;;;;;;;3.67;2.78;;;;;;;15.98;84.30;95606.03;4957583;28;20750;-87
2023/05/06 03:43:59;;;;;;;3.53;2.88;;;;;;;15.91;84.96;95618.28;4976546;28;20211;-88
2023/05/06 03:46:32;;;;;;;3.35;2.75;;;;;;;15.88;84.85;95609.09;4975243;28;20789;-87
2023/05/06 03:49:12;;;;;;;3.00;2.70;;;;;;;15.88;84.66;95607.28;4979326;28;20203;-88
2023/05/06 03:51:53;;;;;;;2.75;2.55;;;;;;;15.87;84.71;95604.91;4978517;28;20219;-87
2023/05/06 03:54:24;;;;;;;4.28;3.13;;;;;;;15.89;84.71;95611.47;4980251;28;20230;-88
2023/05/06 03:56:58;;;;;;;2.80;2.60;;;;;;;15.85;84.27;95612.91;4980428;28;20271;-87
2023/05/06 03:59:26;;;;;;;2.45;2.25;;;;;;;15.80;84.44;95606.72;4978945;28;20251;-88
2023/05/06 04:02:08;;;;;;;2.75;2.55;;;;;;;15.82;84.45;95609.91;4998172;28;20757;-88
2023/05/06 04:05:02;;;;;;;3.20;2.60;;;;;;;15.85;84.81;95619.88;4990624;28;20566;-87
2023/05/06 04:07:38;;;;;;;2.42;2.22;;;;;;;15.84;84.68;95619.09;4980584;28;20677;-86
2023/05/06 04:10:21;;;;;;;2.63;2.40;;;;;;;15.81;84.47;95613.50;4979919;28;20760;-86
2023/05/06 04:13:04;;;;;;;3.58;2.53;;;;;;;15.84;84.53;95615.69;4981517;28;20215;-88
2023/05/06 04:15:34;;;;;;;3.17;2.83;;;;;;;15.82;83.80;95628.09;4981795;28;20204;-87
2023/05/06 04:18:14;;;;;;;2.67;2.47;;;;;;;15.80;84.36;95628.28;4980213;28;20224;-87
2023/05/06 04:20:53;;;;;;;4.28;2.50;;;;;;;15.76;84.51;95624.53;4979589;28;20287;-87
2023/05/06 04:26:15;;;;;;;2.83;2.63;;;;;;;15.77;84.25;95640.91;4978955;28;20302;-87
2023/05/06 04:28:48;;;;;;;4.40;2.60;;;;;;;15.78;83.45;95639.88;4979697;28;20216;-87
2023/05/06 04:31:20;;;;;;;3.40;2.47;;;;;;;15.73;83.93;95640.53;4979370;28;20224;-86
2023/05/06 04:34:03;;;;;;;2.83;2.60;;;;;;;15.65;84.89;95645.16;4979221;28;20192;-88
2023/05/06 04:36:34;;;;;;;5.95;2.80;;;;;;;15.62;84.81;95643.75;4979947;28;20228;-87
2023/05/06 04:39:11;;;;;;;3.10;2.80;;;;;;;15.62;84.13;95651.53;4978980;28;20197;-87
2023/05/06 04:41:45;;;;;;;3.03;2.40;;;;;;;15.62;84.38;95659.34;4966191;28;20196;-87
2023/05/06 04:44:18;;;;;;;2.80;2.60;;;;;;;15.66;84.47;95664.91;4959478;28;20232;-87
2023/05/06 04:46:52;;;;;;;3.20;2.80;;;;;;;15.68;83.84;95663.72;4969796;28;20604;-87
2023/05/06 04:49:26;;;;;;;2.53;2.20;;;;;;;15.68;84.79;95661.13;4978958;28;20203;-87
2023/05/06 04:51:55;;;;;;;2.70;2.50;;;;;;;15.70;84.68;95663.50;4978673;28;20224;-87
2023/05/06 04:54:29;;;;;;;2.47;2.20;;;;;;;15.71;84.20;95671.09;4976399;28;20201;-88
2023/05/06 04:56:58;;;;;;;2.75;2.40;;;;;;;15.74;83.80;95667.28;4970751;28;20216;-89
2023/05/06 04:59:28;;;;;;;2.50;2.30;;;;;;;15.72;84.30;95670.09;4970035;28;20322;-87
2023/05/06 05:01:57;;;;;;;2.85;2.45;;;;;;;15.75;84.08;95671.47;4977064;28;20351;-87
2023/05/06 05:04:38;;;;;;;2.72;2.45;;;;;;;15.77;84.15;95672.06;4977927;28;20208;-87
2023/05/06 05:07:07;;;;;;;2.50;2.30;;;;;;;15.78;84.08;95674.44;4977042;28;20308;-87
2023/05/06 05:09:38;;;;;;;3.00;2.42;;;;;;;15.76;84.80;95684.25;4976610;28;20199;-87
2023/05/06 05:12:05;;;;;;;9.95;2.65;;;;;;;15.91;88.57;95689.19;4977231;28;20235;-85
2023/05/06 05:14:32;;;;;;;2.60;2.40;;;;;;;16.19;86.70;95671.44;4969299;28;20200;-84
2023/05/06 05:16:58;;;;;;;2.28;2.08;;;;;;;16.51;84.65;95677.44;4965438;28;20212;-85
2023/05/06 05:19:26;;;;;;;2.80;2.13;;;;;;;16.78;82.40;95670.25;4965732;28;20197;-84
2023/05/06 05:21:53;;;;;;;3.70;2.00;;;;;;;17.02;80.70;95675.66;4965827;28;20200;-86
2023/05/06 05:24:20;;;;;;;2.80;2.20;;;;;;;17.16;79.49;95669.31;4966751;28;20887;-84
2023/05/06 05:26:46;;;;;;;2.03;1.90;;;;;;;17.21;78.93;95677.28;4957779;28;20271;-85
2023/05/06 05:29:13;;;;;;;2.55;2.03;;;;;;;17.30;78.06;95675.19;4972738;28;20227;-87
2023/05/06 05:31:40;;;;;;;2.28;2.08;;;;;;;17.27;77.53;95677.22;4974116;28;20228;-87
2023/05/06 05:34:06;;;;;;;3.65;2.05;;;;;;;17.20;76.78;95680.88;4974456;28;20200;-87
2023/05/06 05:36:34;;;;;;;4.20;2.15;;;;;;;17.14;77.44;95681.72;4973729;28;20590;-86
2023/05/06 05:39:00;;;;;;;2.10;1.90;;;;;;;17.03;76.83;95682.44;4973439;28;20201;-87
2023/05/06 05:41:27;;;;;;;2.40;2.17;;;;;;;16.99;77.40;95686.47;4964987;28;20264;-85
2023/05/06 05:43:53;;;;;;;2.33;2.00;;;;;;;16.98;77.75;95696.09;4973621;28;20243;-87
2023/05/06 05:46:20;;;;;;;3.13;2.10;;;;;;;16.92;77.86;95689.16;4973456;28;20799;-86
2023/05/06 05:48:46;;;;;;;4.32;2.30;;;;;;;16.90;78.56;95689.38;4984728;28;20204;-86
2023/05/06 05:51:13;;;;;;;2.17;1.98;;;;;;;16.93;78.87;95688.16;4972203;28;20227;-86
2023/05/06 05:53:41;;;;;;;2.42;2.22;;;;;;;17.00;79.04;95695.88;4973215;28;20341;-86
2023/05/06 05:56:07;;;;;;;2.22;2.03;;;;;;;17.04;78.98;95690.03;4972130;28;20196;-85
2023/05/06 05:58:34;;;;;;;2.13;1.98;;;;;;;17.12;78.43;95695.00;4972544;28;20212;-86
2023/05/06 06:01:00;;;;;;;4.28;2.75;;;;;;;17.18;78.12;95706.31;4985068;28;20204;-86
2023/05/06 06:03:26;;;;;;;3.13;2.20;;;;;;;17.20;77.81;95696.50;4992004;28;20811;-84
2023/05/06 06:06:10;;;;;;;3.13;2.10;;;;;;;17.20;77.95;95699.09;4993353;28;20243;-87
2023/05/06 06:08:55;;;;;;;3.28;2.13;;;;;;;17.05;78.49;95693.44;4992295;28;20216;-87
2023/05/06 06:25:44;;;;;;;3.30;2.92;;;;;;;16.40;85.06;95716.28;4950850;28;20238;-88
2023/05/06 06:35:16;;;;;;;3.72;3.42;;;;;;;16.35;86.65;95719.53;4971198;28;20211;-88
2023/05/06 06:38:24;;;;;;;4.10;3.70;;;;;;;16.31;87.75;95720.94;4975104;28;20802;-87
2023/05/06 06:42:05;;;;;;;;;;;;;;;;;;;;;
2023/05/06 06:48:17;;;;;;;5.55;3.80;;;;;;;16.34;90.58;95723.13;4839097;29;20665;-87
2023/05/06 06:51:09;;;;;;;5.35;4.15;;;;;;;16.38;89.47;95726.88;4885932;28;20200;-88
2023/05/06 07:07:17;;;;;;;4.85;4.45;;;;;;;16.76;90.14;95733.88;4967120;28;20247;-87
2023/05/06 07:13:04;;;;;;;5.95;5.45;;;;;;;16.71;91.40;95724.13;4962779;28;20794;-87
2023/05/06 07:15:33;;;;;;;6.05;5.45;;;;;;;16.79;88.99;95729.06;4981003;28;20196;-88
2023/05/06 07:18:04;;;;;;;5.70;5.30;;;;;;;16.84;88.17;95726.63;4963382;28;20208;-88
2023/05/06 07:20:44;;;;;;;6.45;5.85;;;;;;;16.69;92.34;95722.75;4964043;28;20224;-88
2023/05/06 07:23:35;;;;;;;6.45;5.57;;;;;;;16.87;89.32;95723.59;4966730;28;20821;-87
2023/05/06 07:26:06;;;;;;;6.22;5.72;;;;;;;17.01;89.11;95728.69;4975311;28;20196;-87
2023/05/06 07:28:56;;;;;;;5.78;5.20;;;;;;;17.08;88.38;95721.63;4977341;28;20580;-87
2023/05/06 07:31:28;;;;;;;6.03;5.53;;;;;;;17.20;86.29;95719.91;4974988;28;20283;-87
2023/05/06 07:33:59;;;;;;;5.82;5.35;;;;;;;17.25;85.99;95731.28;4974118;28;20581;-87
2023/05/06 08:24:30;;;;;;;5.13;4.05;;;;;;;18.04;77.25;95763.56;5013467;28;20234;-89
2023/05/06 08:50:51;;;;;;;4.60;4.20;;;;;;;18.51;72.81;95771.56;4764910;30;20238;-88
2023/05/06 11:08:35;;;;;;;3.72;3.28;;;;;;;21.53;57.28;95680.38;4864231;29;20212;-87
2023/05/06 11:36:31;;;;;;;4.28;2.40;;;;;;;20.53;58.03;95683.03;5038860;28;20210;-88
2023/05/06 11:49:57;;;;;;;8.13;2.53;;;;;;;20.72;61.32;95673.94;4861740;29;20260;-90
2023/05/06 13:05:48;;;;;;;;;;;;;;;;;;;;;
2023/05/06 14:40:37;;;;;;;3.15;1.73;;;;;;;22.13;48.91;95561.50;5015060;28;20596;-87
2023/05/06 14:53:41;;;;;;;2.58;1.60;;;;;;;22.93;47.36;95559.75;4771116;30;20719;-87
2023/05/06 15:09:42;;;;;;;;;;;;;;;;;;;;;
2023/05/06 15:15:55;;;;;;;;;;;;;;;;;;;;;
2023/05/06 15:24:49;;;;;;;2.25;1.65;;;;;;;22.20;49.22;95543.75;4940051;29;20817;-89
2023/05/06 17:10:28;;;;;;;3.17;2.00;;;;;;;21.06;50.00;95537.78;5037308;28;20213;-88
2023/05/06 17:13:36;;;;;;;2.03;1.85;;;;;;;21.11;49.46;95528.16;5041067;28;20213;-87
2023/05/06 17:18:50;;;;;;;1.90;1.70;;;;;;;21.05;49.76;95534.38;5090126;23;20229;-88
2023/05/06 17:21:44;;;;;;;2.28;1.90;;;;;;;20.95;50.49;95529.81;5047083;28;20197;-88
2023/05/06 19:54:47;;;;;;;7.93;5.38;;;;;;;18.41;68.59;95588.81;4820993;29;20247;-89
2023/05/06 20:09:15;;;;;;;10.25;7.75;;;;;;;18.20;70.64;95582.31;5380415;23;20234;-89
2023/05/06 20:14:50;;;;;;;5.18;4.65;;;;;;;18.30;70.06;95580.75;5008491;28;20240;-89
2023/05/06 20:18:06;;;;;;;6.20;5.43;;;;;;;18.29;71.30;95584.38;5020692;28;20236;-89
2023/05/06 20:20:34;;;;;;;5.20;4.22;;;;;;;18.28;66.98;95580.16;4936967;29;20215;-88
2023/05/06 20:23:04;;;;;;;4.88;4.30;;;;;;;18.28;65.42;95576.75;4936365;29;20202;-89
2023/05/06 20:31:40;;;;;;;5.20;4.10;;;;;;;18.52;64.29;95581.00;4960647;28;20791;-89
2023/05/06 20:34:06;;;;;;;5.47;5.00;;;;;;;18.55;64.98;95577.16;5006238;28;20214;-88
2023/05/06 20:36:33;;;;;;;7.97;5.97;;;;;;;18.55;65.87;95577.94;5019421;28;20313;-88
2023/05/06 20:39:01;;;;;;;7.63;6.88;;;;;;;18.59;66.51;95580.94;5019918;28;20191;-89
2023/05/06 20:47:53;;;;;;;9.02;6.85;;;;;;;18.56;68.11;95571.72;4955375;28;20217;-89
2023/05/06 20:50:53;;;;;;;8.10;6.50;;;;;;;18.38;69.35;95581.44;4957146;29;20209;-89
2023/05/06 20:56:58;;;;;;;7.35;6.43;;;;;;;18.24;70.03;95578.25;4884525;29;20222;-88
2023/05/06 20:59:35;;;;;;;;;;;;;;;;;;;;;
2023/05/06 21:04:48;;;;;;;10.52;6.72;;;;;;;18.06;70.96;95580.94;4986171;28;20215;-88
2023/05/06 21:07:15;;;;;;;8.85;6.00;;;;;;;18.01;71.03;95576.38;5017325;28;20811;-88
2023/05/06 21:15:58;;;;;;;16.83;9.00;;;;;;;17.89;71.72;95572.97;5035950;28;20248;-89
2023/05/06 21:18:30;;;;;;;11.82;8.63;;;;;;;17.83;71.57;95563.44;5025008;28;20253;-88
2023/05/06 21:21:14;;;;;;;;;;;;;;;;;;;;;
2023/05/06 21:23:51;;;;;;;6.80;6.20;;;;;;;17.78;71.58;95574.50;4997927;28;20286;-89
2023/05/06 21:29:31;;;;;;;8.45;6.85;;;;;;;17.85;71.28;95583.03;5015255;28;20203;-89
2023/05/06 21:32:34;;;;;;;11.07;7.55;;;;;;;17.92;70.79;95573.28;5010752;28;20207;-88
2023/05/06 21:35:56;;;;;;;;;;;;;;;;;;;;;
2023/05/06 21:45:09;;;;;;;8.38;7.55;;;;;;;17.85;72.33;95572.59;5038979;28;20216;-88
2023/05/06 21:47:58;;;;;;;7.88;7.10;;;;;;;17.82;72.56;95578.25;5030579;28;20230;-88
2023/05/06 21:51:00;;;;;;;;;;;;;;;;;;;;;
2023/05/06 21:53:44;;;;;;;7.70;6.40;;;;;;;17.81;72.33;95578.47;5018287;28;20218;-89
2023/05/06 21:56:17;;;;;;;8.98;6.60;;;;;;;17.82;72.38;95575.66;5018571;28;20203;-90
2023/05/06 21:58:43;;;;;;;6.50;5.10;;;;;;;17.73;72.98;95579.56;5018731;28;20195;-89
2023/05/06 22:01:32;;;;;;;6.18;5.57;;;;;;;17.69;73.15;95577.66;5031903;28;20202;-88
2023/05/06 22:04:21;;;;;;;6.53;5.20;;;;;;;17.65;72.49;95577.28;5021177;28;20191;-88
2023/05/06 22:09:23;;;;;;;6.65;6.00;;;;;;;17.58;73.69;95579.94;5033422;28;20664;-88
2023/05/06 22:15:08;;;;;;;6.88;5.95;;;;;;;17.55;74.41;95580.38;4957611;28;20260;-89
2023/05/06 22:18:17;;;;;;;7.88;5.65;;;;;;;17.52;73.85;95577.41;4952232;29;20231;-88
2023/05/06 22:21:28;;;;;;;6.43;5.82;;;;;;;17.40;75.13;95579.19;4948542;29;20204;-88
2023/05/06 22:23:57;;;;;;;6.88;5.60;;;;;;;17.41;74.08;95575.56;4948923;29;20217;-88
2023/05/06 22:29:11;;;;;;;8.35;6.72;;;;;;;17.27;74.78;95574.94;4970987;28;20230;-88
2023/05/06 22:31:37;;;;;;;9.88;8.55;;;;;;;17.24;75.13;95575.38;5013964;28;20195;-89
2023/05/06 22:34:08;;;;;;;13.32;11.02;;;;;;;17.25;74.74;95576.94;5016153;28;20226;-88
2023/05/06 22:36:36;;;;;;;9.50;8.40;;;;;;;17.19;75.83;95567.41;5016831;28;20230;-89
2023/05/06 22:39:14;;;;;;;9.93;8.77;;;;;;;17.13;76.07;95578.69;5012910;28;20195;-88
2023/05/06 22:41:44;;;;;;;13.68;10.30;;;;;;;17.09;75.99;95565.31;5018545;28;20636;-88
2023/05/06 22:50:08;;;;;;;6.53;5.80;;;;;;;16.94;76.99;95557.06;4937497;29;20249;-88
2023/05/06 22:56:27;;;;;;;9.52;8.07;;;;;;;16.86;78.24;95565.16;4979183;28;20209;-87
2023/05/06 22:58:55;;;;;;;8.63;7.78;;;;;;;16.74;78.77;95557.28;5001582;28;20215;-87
2023/05/06 23:01:36;;;;;;;9.35;7.35;;;;;;;16.79;78.05;95560.03;5010577;28;20214;-88
2023/05/06 23:04:03;;;;;;;8.80;7.78;;;;;;;16.77;78.21;95550.84;5015835;28;20201;-87
2023/05/06 23:12:50;;;;;;;8.02;7.22;;;;;;;16.71;77.90;95549.13;4998510;28;20299;-88
2023/05/06 23:16:06;;;;;;;8.90;6.75;;;;;;;16.75;78.05;95542.47;4999750;28;20230;-88
2023/05/06 23:23:01;;;;;;;10.38;8.88;;;;;;;16.65;78.80;95548.19;4930786;29;20208;-88
2023/05/06 23:26:07;;;;;;;11.25;8.23;;;;;;;16.58;79.54;95537.00;4938489;29;20196;-87
2023/05/06 23:28:59;;;;;;;9.82;7.28;;;;;;;16.62;79.16;95538.16;4956211;28;20216;-90
2023/05/06 23:31:57;;;;;;;8.00;7.20;;;;;;;16.68;78.50;95545.16;5008563;28;20230;-87
2023/05/06 23:35:06;;;;;;;;;;;;;;;;;;;;;
2023/05/06 23:44:14;;;;;;;9.02;7.90;;;;;;;16.50;79.17;95542.50;4983899;28;20204;-89
2023/05/06 23:46:40;;;;;;;8.02;7.10;;;;;;;16.53;78.79;95542.88;4998073;28;20314;-88
2023/05/06 23:49:08;;;;;;;8.45;6.40;;;;;;;16.59;78.36;95542.00;5016599;28;20209;-88
2023/05/06 23:51:55;;;;;;;7.80;6.70;;;;;;;16.66;77.87;95541.16;5019545;28;20207;-88
2023/05/06 23:54:40;;;;;;;8.02;6.40;;;;;;;16.63;77.96;95542.38;5012047;28;20245;-88
2023/05/06 23:57:10;;;;;;;8.35;7.43;;;;;;;16.52;78.53;95550.88;5012500;28;20215;-89
2023/05/06 23:59:39;;;;;;;8.73;7.65;;;;;;;16.36;79.42;95547.00;5012844;28;20206;-89
